This is the latest recevied weather packets stored in our database for station/object F1ZFG-13. If no packets are shown the sender has not sent any weather packets the latest 10 day(s).
| Time | Temp. | Humidity | Pressure | Rain* | Wind** | Luminosity | Snow |
|---|---|---|---|---|---|---|---|
| 1788160572 | 17.78° C | 89% | 1020.2 hPa | 0 mm | - | - | - |
| 1788157532 | 17.78° C | 94% | 1019.9 hPa | 0 mm | - | - | - |
| 1788154479 | 17.78° C | 94% | 1019.5 hPa | 0 mm | - | - | - |
| 1788151537 | 17.78° C | 93% | 1019.2 hPa | 0 mm | - | - | - |
| 1788148657 | 17.78° C | 92% | 1019 hPa | 0 mm | - | - | - |
| 1788145462 | 17.78° C | 92% | 1019 hPa | 0 mm | - | - | - |
| 1788142097 | 18.33° C | 88% | 1018.9 hPa | 0 mm | - | - | - |
| 1788139145 | 18.33° C | 91% | 1018.5 hPa | 0 mm | - | - | - |
| 1788136188 | 18.89° C | 88% | 1018.4 hPa | 0 mm | - | - | - |
| 1788133067 | 19.44° C | 84% | 1018.1 hPa | 0 mm | - | - | - |
| 1788130082 | 20.56° C | 77% | 1017.5 hPa | 0 mm | - | - | - |
| 1788126627 | 21.11° C | 72% | 1016.7 hPa | 0 mm | - | - | - |
| 1788123686 | 21.11° C | 72% | 1016.7 hPa | 0 mm | - | - | - |
| 1788120216 | 22.22° C | 66% | 1015.7 hPa | 0 mm | - | - | - |
| 1788117288 | 23.89° C | 63% | 1013.9 hPa | 0.25 mm | - | - | - |
| 1788114012 | 25.56° C | 56% | 1013.5 hPa | 0 mm | - | - | - |
| 1788110657 | 27.22° C | 45% | 1013.4 hPa | 0 mm | - | - | - |
| 1788107780 | 27.22° C | 43% | 1013.5 hPa | 0 mm | - | - | - |
| 1788104912 | 27.78° C | 42% | 1014 hPa | 0 mm | - | - | - |
| 1788101640 | 27.78° C | 40% | 1014.5 hPa | 0 mm | - | - | - |
| 1788098501 | 27.78° C | 40% | 1014.5 hPa | 0 mm | - | - | - |
| 1788095385 | 27.78° C | 41% | 1014.8 hPa | 0 mm | - | - | - |
| 1788092313 | 27.22° C | 42% | 1015.5 hPa | 0 mm | - | - | - |
| 1788089353 | 26.67° C | 43% | 1016 hPa | 0 mm | - | - | - |
| 1788085851 | 25.56° C | 46% | 1016.5 hPa | 0 mm | - | - | - |
* Rain latest hour (hover to see other rain measurements)
** Current wind speed in m/s (hover to see current wind gust speed)